createdAt,value
2018-03-27T00:00:53.598Z,12.53
2018-03-27T00:03:21.064Z,11.20
2018-03-27T00:05:48.526Z,13.67
2018-03-27T00:08:16.759Z,12.00
2018-03-27T00:10:44.235Z,12.03
2018-03-27T00:13:11.682Z,12.23
2018-03-27T00:15:39.143Z,10.30
2018-03-27T00:18:06.620Z,12.60
2018-03-27T00:20:34.845Z,12.07
2018-03-27T00:23:02.320Z,12.60
2018-03-27T00:25:29.799Z,11.03
2018-03-27T00:28:09.275Z,10.50
2018-03-27T00:30:48.779Z,8.63
2018-03-27T00:33:28.100Z,9.57
2018-03-27T00:36:07.502Z,9.20
2018-03-27T00:38:46.959Z,9.67
2018-03-27T00:41:20.054Z,9.07
2018-03-27T00:43:47.514Z,8.97
2018-03-27T00:46:14.992Z,11.43
2018-03-27T00:48:42.454Z,12.87
2018-03-27T00:51:09.924Z,12.80
2018-03-27T00:53:38.146Z,13.10
2018-03-27T00:56:05.611Z,11.10
2018-03-27T00:58:33.098Z,12.00
2018-03-27T01:01:00.558Z,13.13
2018-03-27T01:03:28.369Z,11.80
2018-03-27T01:05:55.834Z,12.70
2018-03-27T01:08:23.303Z,11.23
2018-03-27T01:10:50.767Z,13.80
2018-03-27T01:13:19.012Z,12.30
2018-03-27T01:15:46.479Z,15.77
2018-03-27T01:18:13.945Z,13.80
2018-03-27T01:20:42.184Z,13.87
2018-03-27T01:23:09.641Z,14.43
2018-03-27T01:25:37.122Z,14.17
2018-03-27T01:28:04.606Z,13.53
2018-03-27T01:30:32.070Z,11.33
2018-03-27T01:32:59.540Z,12.93
2018-03-27T01:35:27.018Z,13.70
2018-03-27T01:37:55.258Z,14.50
2018-03-27T01:40:22.725Z,12.97
2018-03-27T01:42:50.197Z,13.43
2018-03-27T01:45:18.427Z,14.70
2018-03-27T01:47:46.654Z,13.07
2018-03-27T01:50:14.886Z,15.10
2018-03-27T01:52:42.367Z,15.23
2018-03-27T01:55:09.826Z,14.60
2018-03-27T01:57:38.075Z,13.70
2018-03-27T02:00:05.540Z,13.07
2018-03-27T02:02:33.014Z,13.50
2018-03-27T02:05:00.487Z,14.43
2018-03-27T02:07:28.730Z,15.30
2018-03-27T02:09:56.194Z,14.30
2018-03-27T02:12:30.011Z,14.67
2018-03-27T02:15:03.976Z,14.87
2018-03-27T02:17:37.154Z,13.83
2018-03-27T02:20:10.457Z,16.13
2018-03-27T02:22:38.534Z,15.10
2018-03-27T02:25:05.997Z,13.47
2018-03-27T02:27:33.477Z,14.27
2018-03-27T02:30:00.959Z,15.13
2018-03-27T02:32:29.206Z,18.23
2018-03-27T02:34:56.737Z,14.87
2018-03-27T02:37:24.155Z,15.33
2018-03-27T02:39:51.639Z,18.37
2018-03-27T02:42:19.098Z,18.57
2018-03-27T02:44:46.582Z,17.30
2018-03-27T02:47:14.054Z,16.70
2018-03-27T02:49:41.508Z,18.60
2018-03-27T02:52:08.992Z,18.07
2018-03-27T02:54:37.314Z,18.70
2018-03-27T02:57:05.506Z,22.10
2018-03-27T02:59:32.987Z,16.93
2018-03-27T03:02:00.454Z,18.33
2018-03-27T03:04:28.691Z,19.23
2018-03-27T03:06:56.176Z,20.47
2018-03-27T03:09:24.402Z,17.97
2018-03-27T03:11:51.879Z,19.03
2018-03-27T03:14:19.355Z,21.73
2018-03-27T03:16:46.814Z,17.83
2018-03-27T03:19:14.303Z,17.43
2018-03-27T03:21:43.534Z,19.20
2018-03-27T03:24:11.006Z,19.03
2018-03-27T03:26:38.462Z,19.20
2018-03-27T03:29:05.938Z,19.97
2018-03-27T03:31:33.398Z,19.10
2018-03-27T03:34:00.858Z,22.23
2018-03-27T03:36:29.105Z,18.63
2018-03-27T03:38:56.579Z,17.70
2018-03-27T03:41:24.055Z,19.97
2018-03-27T03:43:52.309Z,20.00
2018-03-27T03:46:19.780Z,19.03
2018-03-27T03:48:48.008Z,22.43
2018-03-27T03:51:15.484Z,25.43
2018-03-27T03:53:43.627Z,24.63
2018-03-27T03:56:11.186Z,27.90
2018-03-27T03:58:38.661Z,27.27
2018-03-27T04:01:06.896Z,25.80
2018-03-27T04:03:36.019Z,26.97
2018-03-27T04:06:04.354Z,29.90
2018-03-27T04:08:32.590Z,32.17
2018-03-27T04:11:00.056Z,29.57
2018-03-27T04:13:27.547Z,28.93
2018-03-27T04:15:55.771Z,28.50
2018-03-27T04:18:23.241Z,25.97
2018-03-27T04:20:50.817Z,27.00
2018-03-27T04:23:18.275Z,25.90
2018-03-27T04:25:45.747Z,31.37
2018-03-27T04:28:13.986Z,27.27
2018-03-27T04:30:41.459Z,30.43
2018-03-27T04:33:08.938Z,32.07
2018-03-27T04:35:37.189Z,35.83
2018-03-27T04:38:04.658Z,35.03
2018-03-27T04:40:32.162Z,35.70
2018-03-27T04:42:59.617Z,37.23
2018-03-27T04:45:27.085Z,36.60
2018-03-27T04:47:54.565Z,34.90
2018-03-27T04:50:22.257Z,29.83
2018-03-27T04:52:49.715Z,42.80
2018-03-27T04:55:17.955Z,38.10
2018-03-27T04:57:45.422Z,41.10
2018-03-27T05:00:12.887Z,40.00
2018-03-27T05:02:40.363Z,36.57
2018-03-27T05:05:08.593Z,32.27
2018-03-27T05:07:36.062Z,38.30
2018-03-27T05:10:03.586Z,37.47
2018-03-27T05:12:31.047Z,39.87
2018-03-27T05:14:58.506Z,33.17
2018-03-27T05:17:25.989Z,37.00
2018-03-27T05:19:53.458Z,36.87
2018-03-27T05:22:20.923Z,33.93
2018-03-27T05:24:48.400Z,39.03
2018-03-27T05:27:16.638Z,37.53
2018-03-27T05:29:44.101Z,35.80
2018-03-27T05:32:11.610Z,35.10
2018-03-27T05:34:39.807Z,38.63
2018-03-27T05:37:07.278Z,32.80
2018-03-27T05:39:34.765Z,36.40
2018-03-27T05:42:02.987Z,36.90
2018-03-27T05:44:30.462Z,36.70
2018-03-27T05:46:57.995Z,38.07
2018-03-27T05:49:25.455Z,36.97
2018-03-27T05:51:52.915Z,39.20
2018-03-27T05:54:22.064Z,37.33
2018-03-27T05:56:50.307Z,36.63
2018-03-27T05:59:17.775Z,33.53
2018-03-27T06:01:45.264Z,33.37
2018-03-27T06:04:13.501Z,34.07
2018-03-27T06:06:40.970Z,32.20
2018-03-27T06:09:08.446Z,32.93
2018-03-27T06:11:36.687Z,35.30
2018-03-27T06:14:05.064Z,37.30
2018-03-27T06:16:32.569Z,35.90
2018-03-27T06:19:00.778Z,35.50
2018-03-27T06:21:28.241Z,31.80
2018-03-27T06:23:56.515Z,34.27
2018-03-27T06:26:23.981Z,31.80
2018-03-27T06:28:51.439Z,32.67
2018-03-27T06:31:18.925Z,31.20
2018-03-27T06:33:46.416Z,33.10
2018-03-27T06:36:13.839Z,33.97
2018-03-27T06:38:41.314Z,33.57
2018-03-27T06:41:09.547Z,33.93
2018-03-27T06:43:36.998Z,34.50
2018-03-27T06:46:04.486Z,31.67
2018-03-27T06:48:31.943Z,31.23
2018-03-27T06:51:00.198Z,34.23
2018-03-27T06:53:27.667Z,34.60
2018-03-27T06:55:55.128Z,31.40
2018-03-27T06:58:24.096Z,30.83
2018-03-27T07:00:51.580Z,31.23
2018-03-27T07:03:19.045Z,27.77
2018-03-27T07:05:47.272Z,30.27
2018-03-27T07:08:14.765Z,28.87
2018-03-27T07:10:43.086Z,28.97
2018-03-27T07:13:11.930Z,30.03
2018-03-27T07:15:39.399Z,31.40
2018-03-27T07:18:07.631Z,31.10
2018-03-27T07:20:35.102Z,31.50
2018-03-27T07:23:02.631Z,31.03
2018-03-27T07:25:30.094Z,30.50
2018-03-27T07:27:57.548Z,31.33
2018-03-27T07:30:25.030Z,30.37
2018-03-27T07:32:52.490Z,29.67
2018-03-27T07:35:19.955Z,28.83
2018-03-27T07:37:47.429Z,29.43
2018-03-27T07:40:15.680Z,29.37
2018-03-27T07:42:43.147Z,29.80
2018-03-27T07:45:10.631Z,27.17
2018-03-27T07:47:38.868Z,28.83
2018-03-27T07:50:06.323Z,29.27
2018-03-27T07:52:33.794Z,26.77
2018-03-27T07:55:02.262Z,27.40
2018-03-27T07:57:29.714Z,26.27
2018-03-27T07:59:57.196Z,24.03
2018-03-27T08:02:24.656Z,24.50
2018-03-27T08:04:52.889Z,25.23
2018-03-27T08:07:20.370Z,24.37
2018-03-27T08:09:47.826Z,21.53
2018-03-27T08:12:16.064Z,24.30
2018-03-27T08:14:44.387Z,21.90
2018-03-27T08:17:11.843Z,21.37
2018-03-27T08:19:39.299Z,22.53
2018-03-27T08:22:06.766Z,22.57
2018-03-27T08:24:35.002Z,20.77
2018-03-27T08:27:02.508Z,22.63
2018-03-27T08:29:30.762Z,20.40
2018-03-27T08:31:58.219Z,21.50
2018-03-27T08:34:25.717Z,18.87
2018-03-27T08:36:53.934Z,19.53
2018-03-27T08:39:21.399Z,17.20
2018-03-27T08:41:48.859Z,16.20
2018-03-27T08:44:16.332Z,18.77
2018-03-27T08:46:44.567Z,19.00
2018-03-27T08:49:12.039Z,19.27
2018-03-27T08:51:39.903Z,17.80
2018-03-27T08:54:08.192Z,17.87
2018-03-27T08:56:35.610Z,18.90
2018-03-27T08:59:03.103Z,18.33
2018-03-27T09:01:30.571Z,17.87
2018-03-27T09:03:58.035Z,17.03
2018-03-27T09:06:26.282Z,15.83
2018-03-27T09:08:53.756Z,17.70
2018-03-27T09:11:21.220Z,17.10
2018-03-27T09:13:48.704Z,16.70
2018-03-27T09:16:16.177Z,15.90
2018-03-27T09:18:43.624Z,16.47
2018-03-27T09:21:11.104Z,15.63
2018-03-27T09:23:38.569Z,16.70
2018-03-27T09:26:06.030Z,17.13
2018-03-27T09:28:33.544Z,17.80
2018-03-27T09:31:01.010Z,16.63
2018-03-27T09:33:28.454Z,16.33
2018-03-27T09:35:55.937Z,17.07
2018-03-27T09:38:24.967Z,15.80
2018-03-27T09:40:52.422Z,14.50
2018-03-27T09:43:19.904Z,14.70
2018-03-27T09:45:48.132Z,14.80
2018-03-27T09:48:15.614Z,15.70
2018-03-27T09:50:43.091Z,15.43
2018-03-27T09:53:11.318Z,15.20
2018-03-27T09:55:38.775Z,15.70
2018-03-27T09:58:06.255Z,13.97
2018-03-27T10:00:39.378Z,14.23
2018-03-27T10:03:07.630Z,14.27
2018-03-27T10:05:35.097Z,13.97
2018-03-27T10:08:03.218Z,14.73
2018-03-27T10:10:30.727Z,13.80
2018-03-27T10:12:59.976Z,14.73
2018-03-27T10:15:27.427Z,15.07
2018-03-27T10:17:54.895Z,14.47
2018-03-27T10:20:23.145Z,14.07
2018-03-27T10:22:50.611Z,14.60
2018-03-27T10:25:18.087Z,14.00
2018-03-27T10:27:45.552Z,14.93
2018-03-27T10:30:13.011Z,15.00
2018-03-27T10:32:40.490Z,14.60
2018-03-27T10:35:07.958Z,14.13
2018-03-27T10:37:36.179Z,15.00
2018-03-27T10:40:04.393Z,13.57
2018-03-27T10:42:31.856Z,12.60
2018-03-27T10:44:59.319Z,13.03
2018-03-27T10:47:27.566Z,10.83
2018-03-27T10:49:55.039Z,11.30
2018-03-27T10:52:22.546Z,10.60
2018-03-27T10:54:50.031Z,10.77
2018-03-27T10:57:17.493Z,11.60
2018-03-27T10:59:45.017Z,11.93
2018-03-27T11:02:12.490Z,12.43
2018-03-27T11:04:39.960Z,13.83
2018-03-27T11:07:07.435Z,14.20
2018-03-27T11:09:34.935Z,13.97
2018-03-27T11:12:02.631Z,13.60
2018-03-27T11:14:30.094Z,14.73
2018-03-27T11:16:57.578Z,14.03
2018-03-27T11:19:25.064Z,14.30
2018-03-27T11:21:53.288Z,14.97
2018-03-27T11:24:20.773Z,14.87
2018-03-27T11:26:48.995Z,15.63
2018-03-27T11:29:16.475Z,14.73
2018-03-27T11:31:43.988Z,14.27
2018-03-27T11:34:11.453Z,13.33
2018-03-27T11:36:38.914Z,13.90
2018-03-27T11:39:06.392Z,15.03
2018-03-27T11:41:33.847Z,12.93
2018-03-27T11:44:01.310Z,14.60
2018-03-27T11:46:28.803Z,14.53
2018-03-27T11:48:56.268Z,12.80
2018-03-27T11:51:24.508Z,14.37
2018-03-27T11:53:51.974Z,13.03
2018-03-27T11:56:19.438Z,12.43
2018-03-27T11:58:46.908Z,12.73
2018-03-27T12:01:15.147Z,12.00
2018-03-27T12:03:43.116Z,11.20
2018-03-27T12:06:10.571Z,12.53
2018-03-27T12:08:38.047Z,14.00
2018-03-27T12:11:05.512Z,13.07
2018-03-27T12:13:32.978Z,13.00
2018-03-27T12:16:01.223Z,12.73
2018-03-27T12:18:28.677Z,12.90
2018-03-27T12:20:56.143Z,14.37
2018-03-27T12:23:23.632Z,13.93
2018-03-27T12:25:51.861Z,15.70
2018-03-27T12:28:19.317Z,14.00
2018-03-27T12:30:46.800Z,15.67
2018-03-27T12:33:14.271Z,18.30
2018-03-27T12:35:42.565Z,17.90
2018-03-27T12:38:10.797Z,21.80
2018-03-27T12:40:38.260Z,19.87
2018-03-27T12:43:05.716Z,16.67
2018-03-27T12:45:33.199Z,15.63
2018-03-27T12:48:01.431Z,16.57
2018-03-27T12:50:28.898Z,15.07
2018-03-27T12:52:56.363Z,17.80
2018-03-27T12:55:24.078Z,18.40
2018-03-27T12:57:51.543Z,18.83
2018-03-27T13:00:19.044Z,18.43
2018-03-27T13:02:46.526Z,18.27
2018-03-27T13:05:14.758Z,18.63
2018-03-27T13:07:42.235Z,18.90
2018-03-27T13:10:09.687Z,18.67
2018-03-27T13:12:37.152Z,18.60
2018-03-27T13:15:04.625Z,19.27
2018-03-27T13:17:32.848Z,19.90
2018-03-27T13:20:00.310Z,18.30
2018-03-27T13:22:27.788Z,20.30
2018-03-27T13:24:55.252Z,18.90
2018-03-27T13:27:22.723Z,20.33
2018-03-27T13:29:50.979Z,21.63
2018-03-27T13:32:18.450Z,22.50
2018-03-27T13:34:45.890Z,21.80
2018-03-27T13:37:13.378Z,19.00
2018-03-27T13:39:40.871Z,22.00
2018-03-27T13:42:08.339Z,19.67
2018-03-27T13:44:35.806Z,23.13
2018-03-27T13:47:03.275Z,20.90
2018-03-27T13:49:30.734Z,22.37
2018-03-27T13:51:58.272Z,22.27
2018-03-27T13:54:25.731Z,20.73
2018-03-27T13:56:53.201Z,22.13
2018-03-27T13:59:20.682Z,20.17
2018-03-27T14:01:48.906Z,22.80
2018-03-27T14:04:16.372Z,20.97
2018-03-27T14:06:44.639Z,21.97
2018-03-27T14:09:12.098Z,21.50
2018-03-27T14:11:39.558Z,20.93
2018-03-27T14:14:07.051Z,14.90
2018-03-27T14:16:34.534Z,12.17
2018-03-27T14:19:02.222Z,12.40
2018-03-27T14:21:29.699Z,11.47
2018-03-27T14:23:57.174Z,10.93
2018-03-27T14:26:24.727Z,11.00
2018-03-27T14:28:52.980Z,9.47
2018-03-27T14:31:20.444Z,9.90
2018-03-27T14:33:47.906Z,9.40
2018-03-27T14:36:15.847Z,10.40
2018-03-27T14:38:43.307Z,12.07
2018-03-27T14:41:10.763Z,13.30
2018-03-27T14:43:38.251Z,14.67
2018-03-27T14:46:05.720Z,13.97
2018-03-27T14:48:33.190Z,15.27
2018-03-27T14:51:01.450Z,14.77
2018-03-27T14:53:28.920Z,16.90
2018-03-27T14:55:57.147Z,16.37
2018-03-27T14:58:24.638Z,17.20
2018-03-27T15:00:52.101Z,17.43
2018-03-27T15:03:19.569Z,16.10
2018-03-27T15:05:47.855Z,16.53
2018-03-27T15:08:16.083Z,14.77
2018-03-27T15:10:44.252Z,14.70
2018-03-27T15:13:11.836Z,15.53
2018-03-27T15:15:39.305Z,14.20
2018-03-27T15:18:07.541Z,14.40
2018-03-27T15:20:35.038Z,13.20
2018-03-27T15:23:03.303Z,15.30
2018-03-27T15:25:32.275Z,15.83
2018-03-27T15:27:59.783Z,14.90
2018-03-27T15:30:27.250Z,14.73
2018-03-27T15:32:54.712Z,15.73
2018-03-27T15:35:22.200Z,16.07
2018-03-27T15:37:49.660Z,17.07
2018-03-27T15:40:17.119Z,16.80
2018-03-27T15:42:44.591Z,17.83
2018-03-27T15:45:12.053Z,16.57
2018-03-27T15:47:39.515Z,17.17
2018-03-27T15:50:07.770Z,14.90
2018-03-27T15:52:35.230Z,15.60
2018-03-27T15:55:02.803Z,15.10
2018-03-27T15:57:30.308Z,15.67
2018-03-27T15:59:57.767Z,15.30
2018-03-27T16:02:25.231Z,15.37
2018-03-27T16:04:52.725Z,15.77
2018-03-27T16:07:20.206Z,17.10
2018-03-27T16:09:47.678Z,17.40
2018-03-27T16:12:15.170Z,15.23
2018-03-27T16:14:42.654Z,17.50
2018-03-27T16:17:10.115Z,18.50
2018-03-27T16:19:37.615Z,18.90
2018-03-27T16:22:05.088Z,20.03
2018-03-27T16:24:32.544Z,18.73
2018-03-27T16:27:00.023Z,18.73
2018-03-27T16:29:27.482Z,18.13
2018-03-27T16:31:54.961Z,17.87
2018-03-27T16:34:23.212Z,15.47
2018-03-27T16:36:50.799Z,17.27
2018-03-27T16:39:19.030Z,15.33
2018-03-27T16:41:46.523Z,14.80
2018-03-27T16:44:15.526Z,15.90
2018-03-27T16:46:43.886Z,15.50
2018-03-27T16:49:11.411Z,15.57
2018-03-27T16:51:39.221Z,16.70
2018-03-27T16:54:06.778Z,17.10
2018-03-27T16:56:35.146Z,16.43
2018-03-27T16:59:02.620Z,16.53
2018-03-27T17:01:30.837Z,17.67
2018-03-27T17:03:58.311Z,18.90
2018-03-27T17:06:25.805Z,17.63
2018-03-27T17:08:54.053Z,18.33
2018-03-27T17:11:21.513Z,18.17
2018-03-27T17:13:49.035Z,17.47
2018-03-27T17:16:16.499Z,18.47
2018-03-27T17:18:43.966Z,20.03
2018-03-27T17:21:11.451Z,20.50
2018-03-27T17:23:39.011Z,18.70
2018-03-27T17:26:06.536Z,17.33
2018-03-27T17:28:34.035Z,16.10
2018-03-27T17:31:01.607Z,19.20
2018-03-27T17:33:29.849Z,20.40
2018-03-27T17:35:57.342Z,18.40
2018-03-27T17:38:25.590Z,19.00
2018-03-27T17:40:54.594Z,19.57
2018-03-27T17:43:22.084Z,19.83
2018-03-27T17:45:49.545Z,20.83
2018-03-27T17:48:17.033Z,20.23
2018-03-27T17:50:44.523Z,19.30
2018-03-27T17:53:13.178Z,22.17
2018-03-27T17:55:40.643Z,18.90
2018-03-27T17:58:08.138Z,20.43
2018-03-27T18:00:36.361Z,24.63
2018-03-27T18:03:04.083Z,20.50
2018-03-27T18:05:31.611Z,20.90
2018-03-27T18:07:59.083Z,21.60
2018-03-27T18:10:27.342Z,22.80
2018-03-27T18:12:54.835Z,22.33
2018-03-27T18:15:22.371Z,24.00
2018-03-27T18:17:50.610Z,20.50
2018-03-27T18:20:18.086Z,20.77
2018-03-27T18:22:46.316Z,19.90
2018-03-27T18:25:13.781Z,19.67
2018-03-27T18:27:41.265Z,20.50
2018-03-27T18:30:08.731Z,19.57
2018-03-27T18:32:36.271Z,19.57
2018-03-27T18:35:03.740Z,19.80
2018-03-27T18:37:31.257Z,21.90
2018-03-27T18:39:58.735Z,19.10
2018-03-27T18:42:26.962Z,19.67
2018-03-27T18:44:55.247Z,18.27
2018-03-27T18:47:23.490Z,19.93
2018-03-27T18:49:50.956Z,20.07
2018-03-27T18:52:18.435Z,20.10
2018-03-27T18:54:45.967Z,18.90
2018-03-27T18:57:13.427Z,19.87
2018-03-27T18:59:41.698Z,23.73
2018-03-27T19:02:09.191Z,24.20
2018-03-27T19:04:38.071Z,21.37
2018-03-27T19:07:06.423Z,21.10
2018-03-27T19:09:33.914Z,17.57
2018-03-27T19:12:02.103Z,18.30
2018-03-27T19:14:29.575Z,20.37
2018-03-27T19:16:57.065Z,22.87
2018-03-27T19:19:24.657Z,23.60
2018-03-27T19:21:52.203Z,21.30
2018-03-27T19:24:20.423Z,26.40
2018-03-27T19:26:47.968Z,21.93
2018-03-27T19:29:15.443Z,23.40
2018-03-27T19:31:42.908Z,23.43
2018-03-27T19:34:10.523Z,23.57
2018-03-27T19:36:38.031Z,24.50
2018-03-27T19:39:05.503Z,27.60
2018-03-27T19:41:32.983Z,25.53
2018-03-27T19:44:01.216Z,23.90
2018-03-27T19:46:28.699Z,26.20
2018-03-27T19:48:56.174Z,26.13
2018-03-27T19:51:24.411Z,21.57
2018-03-27T19:53:51.890Z,21.00
2018-03-27T19:56:19.356Z,25.43
2018-03-27T19:58:47.641Z,24.77
2018-03-27T20:01:15.979Z,26.17
2018-03-27T20:03:43.550Z,21.07
2018-03-27T20:06:11.022Z,22.10
2018-03-27T20:08:38.622Z,22.87
2018-03-27T20:11:06.106Z,22.90
2018-03-27T20:13:34.351Z,25.87
2018-03-27T20:16:01.841Z,23.07
2018-03-27T20:18:29.318Z,26.90
2018-03-27T20:20:59.301Z,23.13
2018-03-27T20:23:26.785Z,25.40
2018-03-27T20:25:54.250Z,28.93
2018-03-27T20:28:21.910Z,27.57
2018-03-27T20:30:49.370Z,23.97
2018-03-27T20:33:16.830Z,25.20
2018-03-27T20:35:45.083Z,24.07
2018-03-27T20:38:12.718Z,25.10
2018-03-27T20:40:40.123Z,23.43
2018-03-27T20:43:07.618Z,28.97
2018-03-27T20:45:35.082Z,23.70
2018-03-27T20:48:04.025Z,26.13
2018-03-27T20:50:31.580Z,24.80
2018-03-27T20:52:59.199Z,22.60
2018-03-27T20:55:26.785Z,27.73
2018-03-27T20:57:55.063Z,25.20
2018-03-27T21:00:22.542Z,27.10
2018-03-27T21:02:50.003Z,29.77
2018-03-27T21:05:18.258Z,28.47
2018-03-27T21:07:46.554Z,26.70
2018-03-27T21:10:14.792Z,30.60
2018-03-27T21:12:43.043Z,29.40
2018-03-27T21:15:10.523Z,30.33
2018-03-27T21:17:37.994Z,31.00
2018-03-27T21:20:05.491Z,32.57
2018-03-27T21:22:32.975Z,27.73
2018-03-27T21:25:00.440Z,32.53
2018-03-27T21:27:27.907Z,29.03
2018-03-27T21:29:55.387Z,31.50
2018-03-27T21:32:22.948Z,29.80
2018-03-27T21:34:50.403Z,33.23
2018-03-27T21:37:17.963Z,31.17
2018-03-27T21:39:45.426Z,37.47
2018-03-27T21:42:12.971Z,37.23
2018-03-27T21:44:40.460Z,35.67
2018-03-27T21:47:08.687Z,32.60
2018-03-27T21:49:36.146Z,32.30
2018-03-27T21:52:03.657Z,34.57
2018-03-27T21:54:31.876Z,34.90
2018-03-27T21:56:59.338Z,32.87
2018-03-27T21:59:26.838Z,34.90
2018-03-27T22:01:55.071Z,33.90
2018-03-27T22:04:22.527Z,35.23
2018-03-27T22:06:49.995Z,37.47
2018-03-27T22:09:17.456Z,33.57
2018-03-27T22:11:44.939Z,30.10
2018-03-27T22:14:13.184Z,34.27
2018-03-27T22:16:40.638Z,34.67
2018-03-27T22:19:08.114Z,31.30
2018-03-27T22:21:36.350Z,36.43
2018-03-27T22:24:03.824Z,34.30
2018-03-27T22:26:31.998Z,31.20
2018-03-27T22:28:59.564Z,40.53
2018-03-27T22:31:27.063Z,37.27
2018-03-27T22:33:54.492Z,36.17
2018-03-27T22:36:22.735Z,41.20
2018-03-27T22:38:50.200Z,35.63
2018-03-27T22:41:17.656Z,39.57
2018-03-27T22:43:45.223Z,37.23
2018-03-27T22:46:12.696Z,39.40
2018-03-27T22:48:40.918Z,36.93
2018-03-27T22:51:09.446Z,38.67
2018-03-27T22:53:36.906Z,35.63
2018-03-27T22:56:05.126Z,37.50
2018-03-27T22:58:32.606Z,39.73
2018-03-27T23:01:00.092Z,47.77
2018-03-27T23:03:28.347Z,44.23
2018-03-27T23:05:55.824Z,44.03
2018-03-27T23:08:23.281Z,40.10
2018-03-27T23:10:50.825Z,40.40
2018-03-27T23:13:18.299Z,40.73
2018-03-27T23:15:46.543Z,42.93
2018-03-27T23:18:14.050Z,40.00
2018-03-27T23:20:42.288Z,44.00
2018-03-27T23:23:09.739Z,40.70
2018-03-27T23:25:37.201Z,44.63
2018-03-27T23:28:05.159Z,46.57
2018-03-27T23:30:32.630Z,43.60
2018-03-27T23:33:00.103Z,41.70
2018-03-27T23:35:28.351Z,44.50
2018-03-27T23:37:55.810Z,50.77
2018-03-27T23:40:23.283Z,47.40
2018-03-27T23:42:50.851Z,53.37
2018-03-27T23:45:18.323Z,56.73
2018-03-27T23:47:46.551Z,51.30
2018-03-27T23:50:14.027Z,46.90
2018-03-27T23:52:41.599Z,42.87
2018-03-27T23:55:09.836Z,40.17
2018-03-27T23:57:37.428Z,45.03
